YRTXU LRCV-LRBS
Flight info
| Callsign | YRTXU |
|---|---|
| Flight time | N/A |
| Altitude | 1600 |
| Route | PEMOK DCT BABAK |
| Aircraft | DA42/L-SBDGRY/S |
Departure
| Time | 2026-04-24 13:26 |
|---|---|
| Airport | Craiova International Airport (LRCV) |
Arrival
| Time | N/A |
|---|---|
| Airport | Bucharest Băneasa Aurel Vlaicu International Airport (LRBS) |
| Time | Latitude | Longitude | Altitude | Speed | Heading |
|---|---|---|---|---|---|
| 2026-04-24 13:14 | 44.31363 | 23.87906 | 625 ft | 0 kts | 89° |
| 2026-04-24 13:22 | 44.31364 | 23.87910 | 625 ft | 0 kts | 61° |
| 2026-04-24 13:22 | 44.31373 | 23.87911 | 628 ft | 1 kts | 326° |
| 2026-04-24 13:22 | 44.31373 | 23.87881 | 628 ft | 8 kts | 261° |
| 2026-04-24 13:22 | 44.31403 | 23.87844 | 625 ft | 8 kts | 2° |
| 2026-04-24 13:23 | 44.31473 | 23.87837 | 629 ft | 14 kts | 0° |
| 2026-04-24 13:23 | 44.31591 | 23.87842 | 628 ft | 19 kts | 358° |
| 2026-04-24 13:23 | 44.31726 | 23.87841 | 632 ft | 20 kts | 2° |
| 2026-04-24 13:23 | 44.31796 | 23.87868 | 629 ft | 5 kts | 336° |
| 2026-04-24 13:24 | 44.31804 | 23.87845 | 635 ft | 3 kts | 272° |
| 2026-04-24 13:24 | 44.31804 | 23.87782 | 630 ft | 24 kts | 270° |
| 2026-04-24 13:24 | 44.31805 | 23.87351 | 644 ft | 59 kts | 272° |
| 2026-04-24 13:24 | 44.31810 | 23.86715 | 691 ft | 69 kts | 271° |
| 2026-04-24 13:25 | 44.31808 | 23.85930 | 795 ft | 92 kts | 270° |
| 2026-04-24 13:25 | 44.31802 | 23.84962 | 936 ft | 104 kts | 271° |
| 2026-04-24 13:25 | 44.31865 | 23.83972 | 1066 ft | 104 kts | 292° |
| 2026-04-24 13:25 | 44.32362 | 23.83227 | 1196 ft | 107 kts | 322° |
| 2026-04-24 13:26 | 44.33098 | 23.82983 | 1318 ft | 114 kts | 1° |
| 2026-04-24 13:26 | 44.33822 | 23.83459 | 1442 ft | 122 kts | 38° |
| 2026-04-24 13:26 | 44.34197 | 23.84554 | 1573 ft | 133 kts | 80° |
| 2026-04-24 13:26 | 44.34235 | 23.85888 | 1628 ft | 141 kts | 85° |